Wattsburg, Pennsylvania
Current Conditions -  °F | °C
As of 12:51 PM on Monday 24 Nov 2014 (Local Time) from KERI Reporting Station
Overcast Overcast  
Wind Chill: 65°   Ceiling: 7000
Heat Index: 65°   Visibility: 10mi
Dew Point: 45°   Wind: 29mph
Humidity: 48%   Direction: 200°SSW
Pressure: 29.23"   Gusts: 46mph
Location:  42°N, 79.81°W
Report Text: KERI 241751Z 20025G40KT 10SM OVC070 18/07 A2923 RMK AO2 PK WND 20044/1732 RAB14E29 SLP898 P0000 60000 T01830072 10194 20156 56014
Loading
Personal Weather Stations






























Interactive Weather Map New forecast layout! Learn more

10-Day Weather Forecast

Advertisements
Track Severe Weather on mobile